sensor_id;sensor_type;location;lat;lon;timestamp;pressure;altitude;pressure_sealevel;temperature;humidity
17873;BME280;36318;42.620;23.338;2023-03-03T00:00:54;92905.69;;;3.03;100.00
17873;BME280;36318;42.620;23.338;2023-03-03T00:03:21;92908.00;;;3.07;100.00
17873;BME280;36318;42.620;23.338;2023-03-03T00:05:50;92904.69;;;3.05;100.00
17873;BME280;36318;42.620;23.338;2023-03-03T00:08:16;92904.88;;;3.02;100.00
17873;BME280;36318;42.620;23.338;2023-03-03T00:10:43;92903.88;;;2.89;100.00
17873;BME280;36318;42.620;23.338;2023-03-03T00:13:14;92904.13;;;2.84;100.00
17873;BME280;36318;42.620;23.338;2023-03-03T00:15:41;92895.53;;;2.85;100.00
17873;BME280;36318;42.620;23.338;2023-03-03T00:18:14;92901.47;;;2.86;100.00
17873;BME280;36318;42.620;23.338;2023-03-03T00:20:45;92896.78;;;2.78;100.00
17873;BME280;36318;42.620;23.338;2023-03-03T00:23:18;92897.75;;;2.76;100.00
17873;BME280;36318;42.620;23.338;2023-03-03T00:25:45;92890.81;;;2.78;100.00
17873;BME280;36318;42.620;23.338;2023-03-03T00:28:17;92890.66;;;2.81;100.00
17873;BME280;36318;42.620;23.338;2023-03-03T00:30:45;92889.84;;;2.65;100.00
17873;BME280;36318;42.620;23.338;2023-03-03T00:33:13;92888.59;;;2.72;100.00
17873;BME280;36318;42.620;23.338;2023-03-03T00:35:45;92890.88;;;2.76;100.00
17873;BME280;36318;42.620;23.338;2023-03-03T00:38:13;92892.81;;;2.73;100.00
17873;BME280;36318;42.620;23.338;2023-03-03T00:40:43;92882.38;;;2.76;100.00
17873;BME280;36318;42.620;23.338;2023-03-03T00:43:16;92878.44;;;2.70;100.00
17873;BME280;36318;42.620;23.338;2023-03-03T00:45:44;92884.34;;;2.71;100.00
17873;BME280;36318;42.620;23.338;2023-03-03T00:48:22;92871.47;;;2.72;100.00
17873;BME280;36318;42.620;23.338;2023-03-03T00:50:49;92869.56;;;2.76;100.00
17873;BME280;36318;42.620;23.338;2023-03-03T00:53:16;92864.69;;;2.71;100.00
17873;BME280;36318;42.620;23.338;2023-03-03T00:55:45;92865.53;;;2.72;100.00
17873;BME280;36318;42.620;23.338;2023-03-03T00:58:12;92858.09;;;2.83;100.00
17873;BME280;36318;42.620;23.338;2023-03-03T01:00:39;92850.13;;;2.87;100.00
17873;BME280;36318;42.620;23.338;2023-03-03T01:03:07;92844.59;;;2.79;100.00
17873;BME280;36318;42.620;23.338;2023-03-03T01:05:33;92839.88;;;2.87;100.00
17873;BME280;36318;42.620;23.338;2023-03-03T01:08:00;92843.09;;;2.91;100.00
17873;BME280;36318;42.620;23.338;2023-03-03T01:10:28;92842.22;;;2.92;100.00
17873;BME280;36318;42.620;23.338;2023-03-03T01:12:57;92838.41;;;2.83;100.00
17873;BME280;36318;42.620;23.338;2023-03-03T01:15:23;92839.88;;;2.87;100.00
17873;BME280;36318;42.620;23.338;2023-03-03T01:17:50;92832.63;;;2.80;100.00
17873;BME280;36318;42.620;23.338;2023-03-03T01:20:17;92841.31;;;2.77;100.00
17873;BME280;36318;42.620;23.338;2023-03-03T01:22:43;92844.16;;;2.87;100.00
17873;BME280;36318;42.620;23.338;2023-03-03T01:25:10;92846.34;;;2.79;100.00
17873;BME280;36318;42.620;23.338;2023-03-03T01:27:37;92846.16;;;2.82;100.00
17873;BME280;36318;42.620;23.338;2023-03-03T01:30:07;92838.88;;;2.90;100.00
17873;BME280;36318;42.620;23.338;2023-03-03T01:32:34;92831.75;;;2.95;100.00
17873;BME280;36318;42.620;23.338;2023-03-03T01:35:00;92826.41;;;2.99;100.00
17873;BME280;36318;42.620;23.338;2023-03-03T01:37:27;92829.69;;;3.01;100.00
17873;BME280;36318;42.620;23.338;2023-03-03T01:39:54;92828.69;;;3.04;100.00
17873;BME280;36318;42.620;23.338;2023-03-03T01:42:21;92830.44;;;3.03;100.00
17873;BME280;36318;42.620;23.338;2023-03-03T01:44:47;92831.25;;;3.04;100.00
17873;BME280;36318;42.620;23.338;2023-03-03T01:47:16;92831.59;;;2.98;100.00
17873;BME280;36318;42.620;23.338;2023-03-03T01:49:43;92828.78;;;3.03;100.00
17873;BME280;36318;42.620;23.338;2023-03-03T01:52:13;92828.69;;;3.04;100.00
17873;BME280;36318;42.620;23.338;2023-03-03T01:54:44;92834.38;;;3.09;100.00
17873;BME280;36318;42.620;23.338;2023-03-03T01:57:13;92827.25;;;3.14;100.00
17873;BME280;36318;42.620;23.338;2023-03-03T01:59:41;92827.34;;;3.13;100.00
17873;BME280;36318;42.620;23.338;2023-03-03T02:02:10;92830.84;;;2.96;100.00
17873;BME280;36318;42.620;23.338;2023-03-03T02:04:38;92836.59;;;2.85;100.00
17873;BME280;36318;42.620;23.338;2023-03-03T02:07:05;92835.59;;;2.88;100.00
17873;BME280;36318;42.620;23.338;2023-03-03T02:09:37;92827.97;;;3.02;100.00
17873;BME280;36318;42.620;23.338;2023-03-03T02:12:07;92825.97;;;3.07;100.00
17873;BME280;36318;42.620;23.338;2023-03-03T02:14:34;92834.53;;;2.92;100.00
17873;BME280;36318;42.620;23.338;2023-03-03T02:17:01;92829.78;;;3.00;100.00
17873;BME280;36318;42.620;23.338;2023-03-03T02:19:30;92830.53;;;3.02;100.00
17873;BME280;36318;42.620;23.338;2023-03-03T02:21:59;92826.22;;;3.03;100.00
17873;BME280;36318;42.620;23.338;2023-03-03T02:24:28;92835.03;;;2.83;100.00
17873;BME280;36318;42.620;23.338;2023-03-03T02:27:00;92835.09;;;2.81;100.00
17873;BME280;36318;42.620;23.338;2023-03-03T02:29:26;92835.16;;;2.95;100.00
17873;BME280;36318;42.620;23.338;2023-03-03T02:31:53;92824.47;;;3.03;100.00
17873;BME280;36318;42.620;23.338;2023-03-03T02:34:19;92820.72;;;3.09;100.00
17873;BME280;36318;42.620;23.338;2023-03-03T02:36:46;92830.44;;;3.03;100.00
17873;BME280;36318;42.620;23.338;2023-03-03T02:39:13;92826.13;;;3.04;100.00
17873;BME280;36318;42.620;23.338;2023-03-03T02:41:43;92826.63;;;3.11;100.00
17873;BME280;36318;42.620;23.338;2023-03-03T02:44:13;92828.91;;;3.15;100.00
17873;BME280;36318;42.620;23.338;2023-03-03T02:46:41;92824.66;;;3.00;100.00
17873;BME280;36318;42.620;23.338;2023-03-03T02:49:08;92833.03;;;2.88;100.00
17873;BME280;36318;42.620;23.338;2023-03-03T02:51:36;92830.47;;;2.88;100.00
17873;BME280;36318;42.620;23.338;2023-03-03T02:54:03;92825.84;;;2.94;100.00
17873;BME280;36318;42.620;23.338;2023-03-03T02:56:29;92822.88;;;2.86;100.00
17873;BME280;36318;42.620;23.338;2023-03-03T02:58:56;92825.63;;;2.97;100.00
17873;BME280;36318;42.620;23.338;2023-03-03T03:01:24;92813.75;;;2.96;100.00
17873;BME280;36318;42.620;23.338;2023-03-03T03:03:51;92815.66;;;2.93;100.00
17873;BME280;36318;42.620;23.338;2023-03-03T03:06:18;92826.59;;;2.81;100.00
17873;BME280;36318;42.620;23.338;2023-03-03T03:08:44;92817.13;;;2.67;100.00
17873;BME280;36318;42.620;23.338;2023-03-03T03:11:11;92819.75;;;2.66;100.00
17873;BME280;36318;42.620;23.338;2023-03-03T03:13:37;92822.69;;;2.74;100.00
17873;BME280;36318;42.620;23.338;2023-03-03T03:16:04;92816.94;;;2.70;100.00
17873;BME280;36318;42.620;23.338;2023-03-03T03:18:33;92816.00;;;2.71;100.00
17873;BME280;36318;42.620;23.338;2023-03-03T03:21:04;92817.56;;;2.74;100.00
17873;BME280;36318;42.620;23.338;2023-03-03T03:23:31;92819.75;;;2.66;100.00
17873;BME280;36318;42.620;23.338;2023-03-03T03:25:57;92813.31;;;2.59;100.00
17873;BME280;36318;42.620;23.338;2023-03-03T03:28:24;92809.59;;;2.64;100.00
17873;BME280;36318;42.620;23.338;2023-03-03T03:30:50;92818.28;;;2.62;100.00
17873;BME280;36318;42.620;23.338;2023-03-03T03:33:17;92814.22;;;2.58;100.00
17873;BME280;36318;42.620;23.338;2023-03-03T03:35:45;92809.66;;;2.63;100.00
17873;BME280;36318;42.620;23.338;2023-03-03T03:38:12;92808.09;;;2.60;100.00
17873;BME280;36318;42.620;23.338;2023-03-03T03:40:39;92806.28;;;2.62;100.00
17873;BME280;36318;42.620;23.338;2023-03-03T03:43:06;92799.78;;;2.57;100.00
17873;BME280;36318;42.620;23.338;2023-03-03T03:45:32;92801.97;;;2.63;100.00
17873;BME280;36318;42.620;23.338;2023-03-03T03:47:59;92796.44;;;2.55;100.00
17873;BME280;36318;42.620;23.338;2023-03-03T03:50:30;92797.09;;;2.58;100.00
17873;BME280;36318;42.620;23.338;2023-03-03T03:52:58;92794.66;;;2.57;100.00
17873;BME280;36318;42.620;23.338;2023-03-03T03:55:25;92789.69;;;2.54;100.00
17873;BME280;36318;42.620;23.338;2023-03-03T03:57:51;92792.00;;;2.42;100.00
17873;BME280;36318;42.620;23.338;2023-03-03T04:00:18;92782.81;;;2.38;100.00
17873;BME280;36318;42.620;23.338;2023-03-03T04:02:45;92790.69;;;2.51;100.00
17873;BME280;36318;42.620;23.338;2023-03-03T04:05:11;92786.19;;;2.55;100.00
17873;BME280;36318;42.620;23.338;2023-03-03T04:07:38;92783.41;;;2.59;100.00
17873;BME280;36318;42.620;23.338;2023-03-03T04:10:06;92783.31;;;2.61;100.00
17873;BME280;36318;42.620;23.338;2023-03-03T04:12:33;92784.81;;;2.65;100.00
17873;BME280;36318;42.620;23.338;2023-03-03T04:15:03;92784.47;;;2.55;100.00
17873;BME280;36318;42.620;23.338;2023-03-03T04:17:30;92779.63;;;2.51;100.00
17873;BME280;36318;42.620;23.338;2023-03-03T04:19:56;92783.75;;;2.37;100.00
17873;BME280;36318;42.620;23.338;2023-03-03T04:22:23;92784.81;;;2.49;100.00
17873;BME280;36318;42.620;23.338;2023-03-03T04:24:50;92781.44;;;2.49;100.00
17873;BME280;36318;42.620;23.338;2023-03-03T04:27:18;92783.63;;;2.55;100.00
17873;BME280;36318;42.620;23.338;2023-03-03T04:29:44;92780.84;;;2.43;100.00
17873;BME280;36318;42.620;23.338;2023-03-03T04:32:11;92786.88;;;2.42;100.00
17873;BME280;36318;42.620;23.338;2023-03-03T04:34:38;92782.16;;;2.51;100.00
17873;BME280;36318;42.620;23.338;2023-03-03T04:37:04;92772.66;;;2.53;100.00
17873;BME280;36318;42.620;23.338;2023-03-03T04:39:31;92781.59;;;2.46;100.00
17873;BME280;36318;42.620;23.338;2023-03-03T04:41:57;92780.25;;;2.38;100.00
17873;BME280;36318;42.620;23.338;2023-03-03T04:44:25;92777.13;;;2.49;100.00
17873;BME280;36318;42.620;23.338;2023-03-03T04:46:52;92771.75;;;2.54;100.00
17873;BME280;36318;42.620;23.338;2023-03-03T04:49:18;92773.97;;;2.60;100.00
17873;BME280;36318;42.620;23.338;2023-03-03T04:51:45;92775.47;;;2.64;100.00
17873;BME280;36318;42.620;23.338;2023-03-03T04:54:11;92779.09;;;2.60;100.00
17873;BME280;36318;42.620;23.338;2023-03-03T04:56:38;92776.84;;;2.69;100.00
17873;BME280;36318;42.620;23.338;2023-03-03T04:59:04;92781.91;;;2.55;100.00
17873;BME280;36318;42.620;23.338;2023-03-03T05:01:32;92780.56;;;2.64;100.00
17873;BME280;36318;42.620;23.338;2023-03-03T05:03:59;92784.03;;;2.63;100.00
17873;BME280;36318;42.620;23.338;2023-03-03T05:06:25;92777.63;;;2.56;100.00
17873;BME280;36318;42.620;23.338;2023-03-03T05:08:52;92785.03;;;2.60;100.00
17873;BME280;36318;42.620;23.338;2023-03-03T05:11:18;92785.53;;;2.67;100.00
17873;BME280;36318;42.620;23.338;2023-03-03T05:13:45;92788.84;;;2.69;100.00
17873;BME280;36318;42.620;23.338;2023-03-03T05:16:12;92788.84;;;2.69;100.00
17873;BME280;36318;42.620;23.338;2023-03-03T05:18:39;92783.22;;;2.78;100.00
17873;BME280;36318;42.620;23.338;2023-03-03T05:21:06;92784.66;;;2.82;100.00
17873;BME280;36318;42.620;23.338;2023-03-03T05:23:33;92788.84;;;2.69;100.00
17873;BME280;36318;42.620;23.338;2023-03-03T05:25:59;92793.19;;;2.82;100.00
17873;BME280;36318;42.620;23.338;2023-03-03T05:28:26;92797.91;;;2.74;100.00
17873;BME280;36318;42.620;23.338;2023-03-03T05:30:52;92788.78;;;2.84;100.00
17873;BME280;36318;42.620;23.338;2023-03-03T05:33:19;92785.81;;;2.92;100.00
17873;BME280;36318;42.620;23.338;2023-03-03T05:35:47;92783.81;;;2.97;100.00
17873;BME280;36318;42.620;23.338;2023-03-03T05:38:13;92780.16;;;3.01;100.00
17873;BME280;36318;42.620;23.338;2023-03-03T05:40:40;92785.78;;;3.08;100.00
17873;BME280;36318;42.620;23.338;2023-03-03T05:43:08;92782.84;;;3.14;100.00
17873;BME280;36318;42.620;23.338;2023-03-03T05:45:34;92789.34;;;3.05;100.00
17873;BME280;36318;42.620;23.338;2023-03-03T05:48:01;92787.34;;;3.10;100.00
17873;BME280;36318;42.620;23.338;2023-03-03T05:50:29;92788.44;;;3.20;100.00
17873;BME280;36318;42.620;23.338;2023-03-03T05:52:57;92791.56;;;3.25;100.00
17873;BME280;36318;42.620;23.338;2023-03-03T05:55:24;92793.69;;;3.33;100.00
17873;BME280;36318;42.620;23.338;2023-03-03T05:57:50;92799.19;;;3.27;100.00
17873;BME280;36318;42.620;23.338;2023-03-03T06:00:17;92787.31;;;3.40;100.00
17873;BME280;36318;42.620;23.338;2023-03-03T06:02:44;92796.22;;;3.48;100.00
17873;BME280;36318;42.620;23.338;2023-03-03T06:05:11;92793.06;;;3.43;100.00
17873;BME280;36318;42.620;23.338;2023-03-03T06:07:37;92793.53;;;3.50;100.00
17873;BME280;36318;42.620;23.338;2023-03-03T06:10:06;92795.75;;;3.56;100.00
17873;BME280;36318;42.620;23.338;2023-03-03T06:12:33;92793.06;;;3.43;100.00
17873;BME280;36318;42.620;23.338;2023-03-03T06:14:59;92795.34;;;3.34;100.00
17873;BME280;36318;42.620;23.338;2023-03-03T06:17:26;92807.22;;;3.21;100.00
17873;BME280;36318;42.620;23.338;2023-03-03T06:19:52;92808.84;;;3.37;100.00
17873;BME280;36318;42.620;23.338;2023-03-03T06:22:19;92809.22;;;3.45;100.00
17873;BME280;36318;42.620;23.338;2023-03-03T06:24:45;92812.63;;;3.46;100.00
17873;BME280;36318;42.620;23.338;2023-03-03T06:27:13;92807.94;;;3.52;100.00
17873;BME280;36318;42.620;23.338;2023-03-03T06:29:40;92809.31;;;3.58;100.00
17873;BME280;36318;42.620;23.338;2023-03-03T06:32:08;92805.00;;;3.58;100.00
17873;BME280;36318;42.620;23.338;2023-03-03T06:34:36;92809.19;;;3.31;100.00
17873;BME280;36318;42.620;23.338;2023-03-03T06:37:02;92811.44;;;3.22;100.00
17873;BME280;36318;42.620;23.338;2023-03-03T06:39:29;92812.66;;;3.30;100.00
17873;BME280;36318;42.620;23.338;2023-03-03T06:41:56;92811.63;;;3.33;100.00
17873;BME280;36318;42.620;23.338;2023-03-03T06:44:24;92813.78;;;3.40;100.00
17873;BME280;36318;42.620;23.338;2023-03-03T06:46:51;92817.38;;;3.52;100.00
17873;BME280;36318;42.620;23.338;2023-03-03T06:49:18;92811.69;;;3.61;100.00
17873;BME280;36318;42.620;23.338;2023-03-03T06:51:44;92814.00;;;3.66;100.00
17873;BME280;36318;42.620;23.338;2023-03-03T06:54:11;92810.00;;;3.76;100.00
17873;BME280;36318;42.620;23.338;2023-03-03T06:56:38;92813.81;;;3.69;100.00
17873;BME280;36318;42.620;23.338;2023-03-03T06:59:09;92814.72;;;3.53;100.00
17873;BME280;36318;42.620;23.338;2023-03-03T07:01:37;92816.94;;;3.74;100.00
17873;BME280;36318;42.620;23.338;2023-03-03T07:04:09;92824.25;;;3.66;100.00
17873;BME280;36318;42.620;23.338;2023-03-03T07:06:39;92822.81;;;3.76;100.00
17873;BME280;36318;42.620;23.338;2023-03-03T07:09:07;92818.59;;;3.89;100.00
17873;BME280;36318;42.620;23.338;2023-03-03T07:11:34;92825.00;;;3.96;100.00
17873;BME280;36318;42.620;23.338;2023-03-03T07:14:04;92829.16;;;4.12;100.00
17873;BME280;36318;42.620;23.338;2023-03-03T07:16:38;92824.84;;;4.13;100.00
17873;BME280;36318;42.620;23.338;2023-03-03T07:19:08;92825.94;;;4.23;100.00
17873;BME280;36318;42.620;23.338;2023-03-03T07:21:38;92821.34;;;4.14;100.00
17873;BME280;36318;42.620;23.338;2023-03-03T07:24:11;92817.31;;;4.24;100.00
17873;BME280;36318;42.620;23.338;2023-03-03T07:26:41;92820.97;;;4.20;100.00
17873;BME280;36318;42.620;23.338;2023-03-03T07:29:12;92819.97;;;4.22;100.00
17873;BME280;36318;42.620;23.338;2023-03-03T07:31:46;92823.47;;;4.07;100.00
17873;BME280;36318;42.620;23.338;2023-03-03T07:34:14;92821.44;;;4.12;100.00
17873;BME280;36318;42.620;23.338;2023-03-03T07:36:42;92824.19;;;4.09;100.00
17873;BME280;36318;42.620;23.338;2023-03-03T07:39:17;92823.19;;;4.12;100.00
17873;BME280;36318;42.620;23.338;2023-03-03T07:41:46;92827.78;;;4.21;100.00
17873;BME280;36318;42.620;23.338;2023-03-03T07:44:15;92817.50;;;4.21;100.00
17873;BME280;36318;42.620;23.338;2023-03-03T07:46:46;92817.66;;;4.32;100.00
17873;BME280;36318;42.620;23.338;2023-03-03T07:49:20;92820.06;;;4.35;100.00
17873;BME280;36318;42.620;23.338;2023-03-03T07:54:16;92822.75;;;4.46;100.00
17873;BME280;36318;42.620;23.338;2023-03-03T07:56:50;92820.13;;;4.48;100.00
17873;BME280;36318;42.620;23.338;2023-03-03T07:59:19;92817.25;;;4.52;100.00
17873;BME280;36318;42.620;23.338;2023-03-03T08:01:46;92815.81;;;4.48;100.00
17873;BME280;36318;42.620;23.338;2023-03-03T08:04:17;92810.25;;;4.54;100.00
17873;BME280;36318;42.620;23.338;2023-03-03T08:06:49;92819.97;;;4.63;100.00
17873;BME280;36318;42.620;23.338;2023-03-03T08:15:01;92814.84;;;4.63;100.00
17873;BME280;36318;42.620;23.338;2023-03-03T08:17:36;92810.34;;;4.67;100.00
17873;BME280;36318;42.620;23.338;2023-03-03T08:20:09;92814.34;;;4.71;100.00
17873;BME280;36318;42.620;23.338;2023-03-03T08:22:54;92805.44;;;4.76;100.00
17873;BME280;36318;42.620;23.338;2023-03-03T08:25:21;92810.97;;;4.70;100.00
17873;BME280;36318;42.620;23.338;2023-03-03T08:27:47;92811.03;;;4.56;100.00
17873;BME280;36318;42.620;23.338;2023-03-03T08:30:15;92809.50;;;4.66;100.00
17873;BME280;36318;42.620;23.338;2023-03-03T08:32:42;92808.94;;;4.75;100.00
17873;BME280;36318;42.620;23.338;2023-03-03T08:35:09;92811.94;;;4.82;100.00
17873;BME280;36318;42.620;23.338;2023-03-03T08:37:35;92808.00;;;4.76;100.00
17873;BME280;36318;42.620;23.338;2023-03-03T08:40:02;92806.84;;;4.68;100.00
17873;BME280;36318;42.620;23.338;2023-03-03T08:42:28;92811.53;;;4.75;100.00
17873;BME280;36318;42.620;23.338;2023-03-03T08:44:55;92807.13;;;4.90;100.00
17873;BME280;36318;42.620;23.338;2023-03-03T08:47:23;92822.81;;;5.00;100.00
17873;BME280;36318;42.620;23.338;2023-03-03T08:49:50;92816.41;;;4.93;100.00
17873;BME280;36318;42.620;23.338;2023-03-03T08:52:18;92820.97;;;5.02;100.00
17873;BME280;36318;42.620;23.338;2023-03-03T08:54:45;92819.72;;;4.95;100.00
17873;BME280;36318;42.620;23.338;2023-03-03T08:57:11;92812.13;;;5.06;100.00
17873;BME280;36318;42.620;23.338;2023-03-03T08:59:38;92812.06;;;5.20;100.00
17873;BME280;36318;42.620;23.338;2023-03-03T09:02:04;92823.63;;;5.27;100.00
17873;BME280;36318;42.620;23.338;2023-03-03T09:04:32;92817.34;;;5.31;100.00
17873;BME280;36318;42.620;23.338;2023-03-03T09:06:59;92816.00;;;5.38;100.00
17873;BME280;36318;42.620;23.338;2023-03-03T09:09:26;92814.78;;;5.43;100.00
17873;BME280;36318;42.620;23.338;2023-03-03T09:11:53;92812.13;;;5.45;100.00
17873;BME280;36318;42.620;23.338;2023-03-03T09:14:24;92809.13;;;5.38;100.00
17873;BME280;36318;42.620;23.338;2023-03-03T09:16:53;92812.59;;;5.25;100.00
17873;BME280;36318;42.620;23.338;2023-03-03T09:19:21;92813.22;;;5.28;100.00
17873;BME280;36318;42.620;23.338;2023-03-03T09:21:50;92811.38;;;5.30;100.00
17873;BME280;36318;42.620;23.338;2023-03-03T09:24:22;92817.34;;;5.31;100.00
17873;BME280;36318;42.620;23.338;2023-03-03T09:26:49;92818.91;;;5.46;100.00
17873;BME280;36318;42.620;23.338;2023-03-03T09:29:18;92815.53;;;5.58;100.00
17873;BME280;36318;42.620;23.338;2023-03-03T09:31:49;92813.50;;;5.63;100.00
17873;BME280;36318;42.620;23.338;2023-03-03T09:34:20;92817.00;;;5.62;100.00
17873;BME280;36318;42.620;23.338;2023-03-03T09:36:47;92815.22;;;5.63;100.00
17873;BME280;36318;42.620;23.338;2023-03-03T09:39:17;92824.41;;;5.67;100.00
17873;BME280;36318;42.620;23.338;2023-03-03T09:42:06;92809.81;;;5.67;100.00
17873;BME280;36318;42.620;23.338;2023-03-03T09:47:22;92811.94;;;5.73;100.00
17873;BME280;36318;42.620;23.338;2023-03-03T09:49:55;92812.78;;;5.74;100.00
17873;BME280;36318;42.620;23.338;2023-03-03T09:52:27;92815.53;;;5.71;100.00
17873;BME280;36318;42.620;23.338;2023-03-03T09:55:03;92823.84;;;5.49;100.00
17873;BME280;36318;42.620;23.338;2023-03-03T09:57:41;92817.78;;;5.37;100.00
17873;BME280;36318;42.620;23.338;2023-03-03T10:00:23;92819.84;;;5.45;100.00
17873;BME280;36318;42.620;23.338;2023-03-03T10:02:58;92809.16;;;5.51;100.00
17873;BME280;36318;42.620;23.338;2023-03-03T10:05:29;92811.31;;;5.57;100.00
17873;BME280;36318;42.620;23.338;2023-03-03T10:08:04;92804.84;;;5.64;100.00
17873;BME280;36318;42.620;23.338;2023-03-03T10:10:39;92814.13;;;5.67;100.00
17873;BME280;36318;42.620;23.338;2023-03-03T10:13:13;92807.09;;;5.56;100.00
17873;BME280;36318;42.620;23.338;2023-03-03T10:15:45;92812.78;;;5.61;100.00
17873;BME280;36318;42.620;23.338;2023-03-03T10:18:19;92800.63;;;5.63;100.00
17873;BME280;36318;42.620;23.338;2023-03-03T10:20:57;92803.50;;;5.71;100.00
17873;BME280;36318;42.620;23.338;2023-03-03T10:23:34;92809.97;;;5.52;100.00
17873;BME280;36318;42.620;23.338;2023-03-03T10:26:11;92802.34;;;5.63;100.00
17873;BME280;36318;42.620;23.338;2023-03-03T10:29:00;92799.31;;;5.70;100.00
17873;BME280;36318;42.620;23.338;2023-03-03T10:31:44;92798.47;;;5.70;100.00
17873;BME280;36318;42.620;23.338;2023-03-03T10:34:21;92793.09;;;5.60;100.00
17873;BME280;36318;42.620;23.338;2023-03-03T10:36:54;92787.53;;;5.54;100.00
17873;BME280;36318;42.620;23.338;2023-03-03T10:42:18;92788.28;;;5.81;100.00
17873;BME280;36318;42.620;23.338;2023-03-03T10:44:52;92789.22;;;5.92;100.00
17873;BME280;36318;42.620;23.338;2023-03-03T10:50:07;92784.56;;;5.97;100.00
17873;BME280;36318;42.620;23.338;2023-03-03T10:52:38;92786.97;;;5.88;100.00
17873;BME280;36318;42.620;23.338;2023-03-03T10:57:59;92772.44;;;5.87;100.00
17873;BME280;36318;42.620;23.338;2023-03-03T11:00:30;92773.06;;;5.90;100.00
17873;BME280;36318;42.620;23.338;2023-03-03T11:05:41;92777.75;;;5.71;100.00
17873;BME280;36318;42.620;23.338;2023-03-03T11:08:13;92776.09;;;5.58;100.00
17873;BME280;36318;42.620;23.338;2023-03-03T11:10:45;92765.84;;;5.70;100.00
17873;BME280;36318;42.620;23.338;2023-03-03T11:13:15;92760.75;;;5.81;100.00
17873;BME280;36318;42.620;23.338;2023-03-03T11:15:50;92758.94;;;5.83;100.00
17873;BME280;36318;42.620;23.338;2023-03-03T11:18:24;92763.59;;;5.91;100.00
17873;BME280;36318;42.620;23.338;2023-03-03T11:20:59;92753.16;;;5.92;100.00
17873;BME280;36318;42.620;23.338;2023-03-03T11:26:24;92763.03;;;5.73;100.00
17873;BME280;36318;42.620;23.338;2023-03-03T11:29:00;92756.97;;;5.74;100.00
17873;BME280;36318;42.620;23.338;2023-03-03T11:31:29;92757.47;;;5.79;100.00
17873;BME280;36318;42.620;23.338;2023-03-03T11:33:59;92746.97;;;5.82;100.00
17873;BME280;36318;42.620;23.338;2023-03-03T11:36:26;92752.13;;;5.82;100.00
17873;BME280;36318;42.620;23.338;2023-03-03T11:38:56;92746.88;;;5.84;100.00
17873;BME280;36318;42.620;23.338;2023-03-03T11:41:30;92745.63;;;5.89;100.00
17873;BME280;36318;42.620;23.338;2023-03-03T11:44:04;92742.84;;;5.92;100.00
17873;BME280;36318;42.620;23.338;2023-03-03T11:46:35;92736.66;;;5.95;100.00
17873;BME280;36318;42.620;23.338;2023-03-03T11:49:04;92739.38;;;5.93;100.00
17873;BME280;36318;42.620;23.338;2023-03-03T11:51:34;92734.72;;;5.98;100.00
17873;BME280;36318;42.620;23.338;2023-03-03T11:54:04;92735.84;;;6.07;100.00
17873;BME280;36318;42.620;23.338;2023-03-03T11:56:37;92732.44;;;6.07;100.00
17873;BME280;36318;42.620;23.338;2023-03-03T11:59:12;92737.91;;;6.02;100.00
17873;BME280;36318;42.620;23.338;2023-03-03T12:01:45;92735.00;;;6.07;100.00
17873;BME280;36318;42.620;23.338;2023-03-03T12:04:14;92733.69;;;6.01;100.00
17873;BME280;36318;42.620;23.338;2023-03-03T12:06:48;92732.75;;;6.02;100.00
17873;BME280;36318;42.620;23.338;2023-03-03T12:09:22;92739.16;;;5.96;100.00
17873;BME280;36318;42.620;23.338;2023-03-03T12:11:53;92736.78;;;5.93;100.00
17873;BME280;36318;42.620;23.338;2023-03-03T12:14:29;92733.59;;;5.90;100.00
17873;BME280;36318;42.620;23.338;2023-03-03T12:17:01;92735.44;;;6.00;100.00
17873;BME280;36318;42.620;23.338;2023-03-03T12:19:30;92740.06;;;5.95;100.00
17873;BME280;36318;42.620;23.338;2023-03-03T12:24:47;92735.88;;;5.94;100.00
17873;BME280;36318;42.620;23.338;2023-03-03T12:27:18;92737.50;;;5.95;100.00
17873;BME280;36318;42.620;23.338;2023-03-03T12:29:52;92737.91;;;5.89;100.00
17873;BME280;36318;42.620;23.338;2023-03-03T12:32:26;92749.16;;;5.88;100.00
17873;BME280;36318;42.620;23.338;2023-03-03T12:35:01;92743.06;;;5.89;100.00
17873;BME280;36318;42.620;23.338;2023-03-03T12:37:36;92745.09;;;5.84;100.00
17873;BME280;36318;42.620;23.338;2023-03-03T12:40:06;92742.53;;;5.84;100.00
17873;BME280;36318;42.620;23.338;2023-03-03T12:42:37;92752.03;;;5.84;100.00
17873;BME280;36318;42.620;23.338;2023-03-03T12:45:09;92746.03;;;5.83;100.00
17873;BME280;36318;42.620;23.338;2023-03-03T12:47:37;92739.66;;;5.76;100.00
17873;BME280;36318;42.620;23.338;2023-03-03T12:50:09;92738.84;;;5.88;100.00
17873;BME280;36318;42.620;23.338;2023-03-03T12:52:45;92742.47;;;5.86;100.00
17873;BME280;36318;42.620;23.338;2023-03-03T12:55:19;92741.03;;;5.94;100.00
17873;BME280;36318;42.620;23.338;2023-03-03T12:57:48;92735.22;;;6.03;100.00
17873;BME280;36318;42.620;23.338;2023-03-03T13:00:20;92734.19;;;6.06;100.00
17873;BME280;36318;42.620;23.338;2023-03-03T13:02:53;92733.47;;;6.04;100.00
17873;BME280;36318;42.620;23.338;2023-03-03T13:05:23;92728.72;;;6.11;100.00
17873;BME280;36318;42.620;23.338;2023-03-03T13:07:55;92732.94;;;6.12;100.00
17873;BME280;36318;42.620;23.338;2023-03-03T13:10:26;92735.81;;;6.20;100.00
17873;BME280;36318;42.620;23.338;2023-03-03T13:12:56;92733.09;;;6.34;100.00
17873;BME280;36318;42.620;23.338;2023-03-03T13:15:27;92731.41;;;6.45;100.00
17873;BME280;36318;42.620;23.338;2023-03-03T13:17:58;92729.34;;;6.50;100.00
17873;BME280;36318;42.620;23.338;2023-03-03T13:20:29;92722.94;;;6.56;100.00
17873;BME280;36318;42.620;23.338;2023-03-03T13:23:03;92709.06;;;6.57;100.00
17873;BME280;36318;42.620;23.338;2023-03-03T13:25:47;92725.16;;;6.60;100.00
17873;BME280;36318;42.620;23.338;2023-03-03T13:28:20;92727.13;;;6.57;100.00